createdAt,value
2019-04-07T00:01:53.262Z,10.33
2019-04-07T00:04:21.687Z,10.32
2019-04-07T00:06:50.123Z,10.23
2019-04-07T00:09:18.915Z,10.21
2019-04-07T00:11:47.499Z,10.18
2019-04-07T00:14:16.555Z,10.16
2019-04-07T00:16:45.148Z,10.10
2019-04-07T00:19:13.701Z,10.09
2019-04-07T00:21:42.342Z,10.05
2019-04-07T00:24:10.716Z,10.04
2019-04-07T00:26:39.432Z,10.00
2019-04-07T00:29:08.678Z,9.96
2019-04-07T00:31:37.375Z,9.93
2019-04-07T00:34:05.812Z,9.89
2019-04-07T00:36:34.256Z,9.85
2019-04-07T00:39:04.188Z,9.84
2019-04-07T00:41:32.677Z,9.81
2019-04-07T00:44:01.576Z,9.78
2019-04-07T00:46:30.027Z,9.75
2019-04-07T00:48:58.459Z,9.74
2019-04-07T00:51:27.000Z,9.69
2019-04-07T00:53:56.095Z,9.67
2019-04-07T00:56:24.868Z,9.63
2019-04-07T00:58:53.359Z,9.60
2019-04-07T01:01:21.757Z,9.57
2019-04-07T01:03:50.427Z,9.52
2019-04-07T01:06:18.865Z,9.50
2019-04-07T01:08:47.838Z,9.47
2019-04-07T01:11:16.761Z,9.43
2019-04-07T01:13:45.402Z,9.40
2019-04-07T01:16:13.973Z,9.38
2019-04-07T01:18:43.749Z,9.33
2019-04-07T01:21:12.808Z,9.28
2019-04-07T01:23:41.564Z,9.25
2019-04-07T01:26:10.543Z,9.22
2019-04-07T01:28:39.604Z,9.21
2019-04-07T01:31:08.732Z,9.20
2019-04-07T01:33:37.740Z,9.15
2019-04-07T01:36:06.191Z,9.12
2019-04-07T01:38:34.612Z,8.57
2019-04-07T01:41:20.760Z,9.08
2019-04-07T01:44:08.985Z,9.05
2019-04-07T01:46:39.017Z,8.99
2019-04-07T01:49:11.747Z,8.96
2019-04-07T01:51:58.049Z,8.95
2019-04-07T01:54:30.946Z,8.90
2019-04-07T01:57:01.372Z,8.87
2019-04-07T01:59:34.351Z,8.87
2019-04-07T02:02:16.736Z,8.83
2019-04-07T02:04:56.309Z,8.83
2019-04-07T02:07:29.460Z,8.23
2019-04-07T02:10:05.444Z,8.76
2019-04-07T02:12:47.814Z,8.73
2019-04-07T02:15:29.813Z,8.72
2019-04-07T02:18:00.142Z,8.68
2019-04-07T02:21:04.341Z,8.66
2019-04-07T02:23:50.669Z,8.65
2019-04-07T02:26:23.587Z,8.56
2019-04-07T02:28:59.210Z,8.55
2019-04-07T02:31:35.943Z,8.51
2019-04-07T02:34:15.551Z,8.50
2019-04-07T02:37:04.701Z,8.49
2019-04-07T02:39:40.813Z,8.49
2019-04-07T02:42:15.125Z,8.43
2019-04-07T02:44:48.273Z,8.40
2019-04-07T02:47:21.347Z,8.39
2019-04-07T02:49:52.755Z,8.35
2019-04-07T02:52:34.591Z,8.33
2019-04-07T02:55:08.421Z,8.31
2019-04-07T02:57:38.582Z,8.25
2019-04-07T03:00:12.134Z,8.23
2019-04-07T03:02:42.339Z,8.21
2019-04-07T03:05:12.493Z,8.19
2019-04-07T03:07:48.732Z,8.19
2019-04-07T03:10:18.951Z,8.15
2019-04-07T03:13:04.995Z,8.13
2019-04-07T03:15:38.982Z,8.36
2019-04-07T03:18:14.825Z,8.09
2019-04-07T03:20:47.608Z,8.04
2019-04-07T03:23:33.003Z,8.00
2019-04-07T03:26:05.601Z,7.99
2019-04-07T03:28:52.577Z,7.95
2019-04-07T03:31:32.772Z,7.93
2019-04-07T03:34:09.714Z,7.90
2019-04-07T03:37:13.840Z,7.90
2019-04-07T03:39:15.560Z,7.85
2019-04-07T03:41:49.209Z,7.83
2019-04-07T03:44:34.459Z,7.83
2019-04-07T03:47:10.376Z,7.78
2019-04-07T03:49:55.485Z,7.76
2019-04-07T03:52:34.528Z,7.71
2019-04-07T03:55:06.632Z,7.68
2019-04-07T03:57:46.341Z,7.67
2019-04-07T04:00:36.225Z,7.65
2019-04-07T04:03:06.646Z,7.65
2019-04-07T04:05:41.700Z,7.61
2019-04-07T04:08:11.719Z,7.81
2019-04-07T04:11:00.110Z,7.62
2019-04-07T04:13:42.351Z,7.57
2019-04-07T04:16:11.398Z,7.53
2019-04-07T04:18:40.606Z,7.50
2019-04-07T04:21:09.242Z,7.48
2019-04-07T04:23:40.154Z,7.49
2019-04-07T04:26:08.309Z,7.51
2019-04-07T04:28:37.071Z,7.49
2019-04-07T04:31:05.504Z,7.49
2019-04-07T04:33:34.806Z,7.47
2019-04-07T04:36:03.454Z,7.47
2019-04-07T04:38:31.997Z,7.47
2019-04-07T04:41:01.289Z,7.44
2019-04-07T04:43:29.925Z,7.45
2019-04-07T04:45:58.374Z,7.41
2019-04-07T04:48:27.660Z,7.41
2019-04-07T04:50:57.968Z,7.39
2019-04-07T04:53:26.888Z,7.38
2019-04-07T04:55:55.677Z,7.35
2019-04-07T04:58:24.770Z,7.34
2019-04-07T05:00:53.574Z,7.34
2019-04-07T05:03:22.023Z,7.33
2019-04-07T05:05:51.217Z,7.33
2019-04-07T05:08:20.479Z,7.30
2019-04-07T05:10:49.099Z,7.29
2019-04-07T05:13:18.020Z,6.75
2019-04-07T05:15:46.906Z,7.32
2019-04-07T05:18:15.350Z,7.30
2019-04-07T05:20:44.378Z,7.34
2019-04-07T05:23:13.091Z,7.34
2019-04-07T05:25:41.520Z,7.36
2019-04-07T05:28:10.092Z,7.37
2019-04-07T05:30:39.159Z,7.39
2019-04-07T05:33:07.927Z,7.41
2019-04-07T05:35:36.375Z,7.46
2019-04-07T05:38:06.620Z,7.47
2019-04-07T05:40:35.647Z,7.50
2019-04-07T05:43:04.750Z,7.54
2019-04-07T05:45:33.783Z,7.59
2019-04-07T05:48:03.248Z,7.60
2019-04-07T05:50:31.843Z,7.86
2019-04-07T05:53:00.365Z,7.72
2019-04-07T05:55:29.279Z,7.74
2019-04-07T05:57:57.715Z,7.79
2019-04-07T06:00:26.238Z,7.84
2019-04-07T06:02:54.663Z,7.87
2019-04-07T06:05:23.106Z,7.93
2019-04-07T06:07:51.561Z,8.01
2019-04-07T06:10:22.859Z,8.07
2019-04-07T06:12:50.265Z,8.16
2019-04-07T06:15:22.042Z,8.23
2019-04-07T06:17:49.096Z,8.31
2019-04-07T06:20:18.053Z,8.42
2019-04-07T06:22:49.798Z,8.49
2019-04-07T06:25:17.499Z,8.61
2019-04-07T06:27:46.667Z,8.72
2019-04-07T06:30:16.561Z,8.79
2019-04-07T06:32:45.193Z,8.88
2019-04-07T06:35:14.191Z,8.99
2019-04-07T06:37:42.932Z,9.07
2019-04-07T06:40:12.337Z,9.21
2019-04-07T06:42:40.953Z,9.31
2019-04-07T06:45:11.905Z,9.43
2019-04-07T06:48:01.163Z,9.50
2019-04-07T06:50:50.221Z,9.64
2019-04-07T06:53:20.665Z,9.75
2019-04-07T06:56:05.947Z,9.87
2019-04-07T06:58:51.569Z,10.05
2019-04-07T07:01:27.577Z,10.25
2019-04-07T07:04:00.606Z,10.45
2019-04-07T07:06:37.310Z,10.61
2019-04-07T07:09:14.091Z,10.76
2019-04-07T07:11:52.908Z,10.88
2019-04-07T07:14:44.531Z,11.04
2019-04-07T07:17:14.962Z,11.14
2019-04-07T07:19:44.635Z,11.22
2019-04-07T07:22:18.562Z,11.35
2019-04-07T07:24:47.593Z,11.45
2019-04-07T07:27:16.426Z,11.58
2019-04-07T07:29:45.976Z,11.72
2019-04-07T07:32:15.858Z,11.28
2019-04-07T07:34:44.655Z,11.97
2019-04-07T07:37:13.375Z,12.12
2019-04-07T07:39:44.777Z,12.25
2019-04-07T07:42:12.250Z,12.37
2019-04-07T07:44:40.826Z,12.52
2019-04-07T07:47:10.186Z,12.64
2019-04-07T07:49:40.938Z,12.80
2019-04-07T07:52:09.110Z,12.94
2019-04-07T07:54:37.569Z,13.10
2019-04-07T07:57:06.008Z,13.25
2019-04-07T07:59:37.980Z,13.41
2019-04-07T08:02:04.853Z,13.56
2019-04-07T08:04:33.480Z,13.91
2019-04-07T08:07:02.683Z,13.88
2019-04-07T08:09:31.773Z,14.05
2019-04-07T08:12:01.618Z,14.21
2019-04-07T08:14:30.401Z,14.39
2019-04-07T08:17:01.635Z,14.56
2019-04-07T08:19:30.399Z,14.71
2019-04-07T08:21:59.651Z,14.88
2019-04-07T08:24:28.354Z,15.06
2019-04-07T08:26:58.353Z,15.24
2019-04-07T08:29:27.057Z,15.42
2019-04-07T08:31:56.566Z,15.60
2019-04-07T08:34:25.518Z,14.74
2019-04-07T08:36:54.134Z,15.96
2019-04-07T08:39:25.576Z,16.10
2019-04-07T08:41:52.938Z,16.28
2019-04-07T08:44:21.570Z,16.44
2019-04-07T08:46:50.799Z,16.67
2019-04-07T08:49:23.371Z,16.91
2019-04-07T08:51:49.521Z,17.11
2019-04-07T08:54:18.518Z,17.30
2019-04-07T08:56:46.953Z,17.44
2019-04-07T08:59:17.063Z,17.70
2019-04-07T09:01:45.552Z,17.92
2019-04-07T09:04:16.554Z,18.13
2019-04-07T09:06:44.892Z,18.22
2019-04-07T09:09:14.056Z,18.38
2019-04-07T09:11:42.682Z,18.56
2019-04-07T09:14:11.143Z,18.72
2019-04-07T09:16:41.987Z,18.96
2019-04-07T09:19:14.982Z,19.31
2019-04-07T09:21:57.072Z,19.75
2019-04-07T09:24:32.249Z,20.22
2019-04-07T09:27:19.500Z,20.67
2019-04-07T09:30:06.075Z,21.14
2019-04-07T09:32:51.528Z,21.65
2019-04-07T09:35:27.461Z,21.81
2019-04-07T09:38:08.001Z,22.32
2019-04-07T09:40:54.443Z,22.72
2019-04-07T09:43:36.681Z,23.18
2019-04-07T09:46:12.559Z,23.34
2019-04-07T09:48:50.934Z,23.50
2019-04-07T09:51:20.723Z,23.60
2019-04-07T09:53:56.651Z,23.80
2019-04-07T09:56:44.050Z,23.89
2019-04-07T09:59:20.376Z,23.94
2019-04-07T10:01:59.319Z,24.39
2019-04-07T10:04:31.144Z,24.45
2019-04-07T10:07:17.415Z,24.52
2019-04-07T10:10:10.836Z,24.47
2019-04-07T10:12:41.447Z,24.25
2019-04-07T10:15:27.869Z,24.78
2019-04-07T10:18:16.805Z,25.03
2019-04-07T10:20:46.889Z,25.26
2019-04-07T10:23:19.798Z,25.28
2019-04-07T10:26:06.315Z,25.47
2019-04-07T10:28:39.946Z,25.69
2019-04-07T10:31:13.933Z,25.89
2019-04-07T10:33:44.153Z,25.92
2019-04-07T10:36:14.797Z,26.27
2019-04-07T10:38:48.157Z,26.28
2019-04-07T10:41:33.529Z,26.15
2019-04-07T10:44:09.644Z,26.19
2019-04-07T10:46:56.078Z,26.33
2019-04-07T10:49:26.337Z,26.32
2019-04-07T10:52:13.077Z,26.33
2019-04-07T10:54:49.263Z,26.41
2019-04-07T10:57:34.476Z,26.37
2019-04-07T11:00:07.565Z,26.26
2019-04-07T11:02:56.868Z,26.29
2019-04-07T11:05:44.773Z,26.26
2019-04-07T11:08:15.064Z,26.54
2019-04-07T11:11:02.293Z,26.68
2019-04-07T11:13:51.641Z,26.71
2019-04-07T11:16:27.399Z,26.86
2019-04-07T11:19:00.615Z,27.08
2019-04-07T11:21:30.690Z,27.14
2019-04-07T11:24:17.622Z,27.23
2019-04-07T11:26:48.586Z,27.41
2019-04-07T11:29:19.379Z,27.49
2019-04-07T11:32:05.549Z,27.39
2019-04-07T11:34:54.885Z,27.38
2019-04-07T11:37:25.034Z,27.34
2019-04-07T11:39:55.115Z,27.64
2019-04-07T11:42:40.433Z,27.51
2019-04-07T11:45:11.339Z,27.68
2019-04-07T11:47:41.685Z,27.63
2019-04-07T11:50:12.481Z,27.69
2019-04-07T11:52:46.207Z,27.92
2019-04-07T11:55:17.311Z,28.04
2019-04-07T11:58:00.665Z,28.17
2019-04-07T12:00:22.505Z,28.18
2019-04-07T12:02:53.631Z,28.03
2019-04-07T12:05:40.811Z,28.16
2019-04-07T12:08:13.979Z,28.20
2019-04-07T12:11:03.798Z,27.98
2019-04-07T12:13:32.987Z,28.23
2019-04-07T12:16:20.134Z,28.16
2019-04-07T12:18:53.671Z,28.06
2019-04-07T12:21:38.095Z,28.03
2019-04-07T12:24:09.550Z,27.63
2019-04-07T12:26:52.289Z,27.36
2019-04-07T12:29:30.858Z,27.35
2019-04-07T12:32:13.016Z,27.16
2019-04-07T12:34:58.959Z,27.24
2019-04-07T12:37:46.603Z,27.18
2019-04-07T12:40:30.673Z,27.12
2019-04-07T12:43:00.806Z,26.98
2019-04-07T12:45:39.600Z,26.92
2019-04-07T12:48:19.503Z,27.04
2019-04-07T12:51:06.246Z,27.11
2019-04-07T12:53:36.639Z,27.14
2019-04-07T12:56:25.260Z,27.36
2019-04-07T12:59:14.308Z,27.42
2019-04-07T13:01:48.488Z,27.68
2019-04-07T13:04:21.475Z,27.66
2019-04-07T13:06:54.516Z,27.53
2019-04-07T13:09:40.652Z,27.31
2019-04-07T13:12:13.978Z,27.11
2019-04-07T13:14:47.576Z,26.97
2019-04-07T13:17:23.618Z,26.36
2019-04-07T13:19:54.411Z,26.78
2019-04-07T13:22:26.163Z,26.78
2019-04-07T13:24:58.146Z,26.58
2019-04-07T13:27:28.085Z,26.54
2019-04-07T13:29:57.407Z,26.33
2019-04-07T13:32:41.594Z,27.10
2019-04-07T13:35:04.763Z,26.32
2019-04-07T13:37:43.721Z,26.04
2019-04-07T13:40:14.319Z,25.83
2019-04-07T13:42:50.918Z,25.85
2019-04-07T13:45:36.245Z,25.73
2019-04-07T13:48:15.827Z,25.25
2019-04-07T13:50:47.714Z,25.94
2019-04-07T13:53:33.760Z,26.01
2019-04-07T13:56:19.762Z,25.87
2019-04-07T13:58:50.131Z,25.90
2019-04-07T14:01:34.189Z,25.90
2019-04-07T14:04:03.061Z,25.80
2019-04-07T14:06:32.867Z,26.07
2019-04-07T14:09:14.714Z,26.67
2019-04-07T14:15:01.400Z,26.32
2019-04-07T14:17:35.097Z,26.53
2019-04-07T14:20:14.937Z,26.55
2019-04-07T14:22:45.463Z,26.52
2019-04-07T14:25:27.817Z,26.43
2019-04-07T14:28:01.337Z,26.42
2019-04-07T14:30:40.819Z,26.26
2019-04-07T14:33:21.455Z,26.36
2019-04-07T14:35:51.805Z,26.27
2019-04-07T14:38:22.309Z,26.18
2019-04-07T14:41:09.666Z,26.07
2019-04-07T14:43:55.527Z,25.85
2019-04-07T14:46:42.618Z,25.91
2019-04-07T14:49:27.416Z,25.76
2019-04-07T14:52:03.623Z,25.53
2019-04-07T14:54:56.463Z,25.48
2019-04-07T14:57:22.526Z,25.34
2019-04-07T14:59:54.434Z,25.46
2019-04-07T15:02:22.837Z,25.49
2019-04-07T15:04:53.155Z,25.68
2019-04-07T15:07:35.121Z,25.78
2019-04-07T15:10:15.561Z,25.75
2019-04-07T15:12:44.290Z,25.75
2019-04-07T15:15:12.853Z,25.83
2019-04-07T15:17:41.294Z,25.69
2019-04-07T15:20:13.736Z,25.73
2019-04-07T15:22:41.072Z,25.56
2019-04-07T15:25:10.711Z,25.77
2019-04-07T15:27:40.051Z,25.64
2019-04-07T15:30:13.275Z,25.61
2019-04-07T15:32:40.536Z,25.38
2019-04-07T15:35:11.947Z,25.29
2019-04-07T15:37:40.626Z,25.10
2019-04-07T15:40:09.531Z,25.13
2019-04-07T15:42:43.400Z,25.67
2019-04-07T15:45:10.605Z,25.04
2019-04-07T15:47:39.214Z,25.00
2019-04-07T15:50:09.552Z,24.82
2019-04-07T15:52:42.139Z,24.80
2019-04-07T15:55:08.366Z,24.79
2019-04-07T15:57:37.273Z,25.41
2019-04-07T16:00:07.892Z,25.04
2019-04-07T16:02:40.884Z,24.82
2019-04-07T16:05:06.549Z,24.83
2019-04-07T16:07:35.231Z,25.52
2019-04-07T16:10:05.874Z,24.87
2019-04-07T16:12:43.462Z,24.87
2019-04-07T16:15:04.659Z,24.72
2019-04-07T16:17:34.714Z,25.26
2019-04-07T16:20:04.342Z,24.53
2019-04-07T16:22:32.031Z,24.53
2019-04-07T16:25:00.694Z,24.92
2019-04-07T16:27:29.355Z,24.22
2019-04-07T16:29:58.025Z,23.90
2019-04-07T16:32:28.885Z,23.71
2019-04-07T16:34:57.275Z,23.58
2019-04-07T16:37:29.092Z,23.39
2019-04-07T16:39:55.286Z,23.32
2019-04-07T16:42:23.725Z,23.68
2019-04-07T16:44:52.639Z,23.14
2019-04-07T16:47:24.911Z,22.98
2019-04-07T16:49:52.401Z,22.93
2019-04-07T16:52:21.069Z,22.86
2019-04-07T16:54:49.536Z,22.83
2019-04-07T16:57:18.839Z,22.76
2019-04-07T16:59:47.898Z,22.70
2019-04-07T17:02:17.885Z,22.54
2019-04-07T17:04:46.488Z,22.50
2019-04-07T17:07:16.786Z,22.40
2019-04-07T17:09:45.123Z,22.20
2019-04-07T17:12:13.846Z,22.07
2019-04-07T17:14:42.442Z,21.86
2019-04-07T17:17:11.164Z,21.64
2019-04-07T17:19:40.456Z,21.61
2019-04-07T17:22:11.861Z,21.43
2019-04-07T17:24:39.917Z,21.25
2019-04-07T17:27:11.372Z,21.10
2019-04-07T17:29:39.527Z,20.93
2019-04-07T17:32:08.855Z,20.75
2019-04-07T17:34:41.377Z,20.59
2019-04-07T17:37:07.467Z,20.40
2019-04-07T17:39:40.072Z,20.22
2019-04-07T17:42:11.590Z,20.09
2019-04-07T17:44:50.528Z,17.48
2019-04-07T17:47:27.898Z,19.75
2019-04-07T17:49:59.168Z,19.66
2019-04-07T17:52:40.846Z,19.50
2019-04-07T17:55:27.990Z,19.35
2019-04-07T17:58:16.063Z,19.11
2019-04-07T18:00:58.578Z,18.93
2019-04-07T18:03:46.239Z,18.83
2019-04-07T18:06:33.470Z,18.63
2019-04-07T18:09:22.111Z,18.49
2019-04-07T18:11:53.414Z,18.31
2019-04-07T18:14:28.322Z,18.15
2019-04-07T18:17:16.222Z,18.00
2019-04-07T18:19:48.886Z,17.91
2019-04-07T18:22:25.079Z,17.76
2019-04-07T18:24:55.155Z,17.62
2019-04-07T18:27:25.407Z,17.36
2019-04-07T18:29:59.674Z,17.36
2019-04-07T18:32:30.774Z,17.20
2019-04-07T18:35:01.213Z,17.10
2019-04-07T18:37:36.479Z,16.94
2019-04-07T18:40:09.513Z,16.86
2019-04-07T18:42:45.654Z,16.74
2019-04-07T18:45:18.981Z,16.63
2019-04-07T18:47:53.881Z,16.50
2019-04-07T18:50:29.289Z,16.02
2019-04-07T18:53:08.120Z,16.30
2019-04-07T18:55:54.458Z,16.18
2019-04-07T18:58:31.180Z,16.02
2019-04-07T19:01:07.352Z,15.94
2019-04-07T19:03:53.254Z,15.82
2019-04-07T19:06:36.895Z,15.73
2019-04-07T19:09:10.122Z,15.63
2019-04-07T19:11:46.319Z,15.54
2019-04-07T19:14:39.255Z,15.45
2019-04-07T19:16:56.524Z,15.34
2019-04-07T19:19:38.462Z,15.25
2019-04-07T19:22:24.792Z,15.13
2019-04-07T19:24:55.758Z,15.08
2019-04-07T19:27:30.104Z,14.99
2019-04-07T19:30:15.303Z,14.93
2019-04-07T19:32:48.510Z,14.86
2019-04-07T19:35:20.595Z,14.74
2019-04-07T19:38:00.142Z,14.67
2019-04-07T19:40:30.373Z,14.60
2019-04-07T19:43:12.238Z,14.53
2019-04-07T19:45:41.390Z,14.46
2019-04-07T19:48:11.709Z,14.33
2019-04-07T19:50:58.591Z,14.28
2019-04-07T19:53:34.686Z,14.24
2019-04-07T19:56:20.980Z,14.14
2019-04-07T19:58:54.061Z,14.04
2019-04-07T20:01:29.026Z,13.92
2019-04-07T20:03:59.754Z,13.87
2019-04-07T20:06:45.838Z,13.81
2019-04-07T20:09:34.242Z,13.74
2019-04-07T20:12:07.021Z,13.63
2019-04-07T20:15:00.571Z,13.57
2019-04-07T20:17:37.002Z,13.50
2019-04-07T20:20:17.413Z,13.44
2019-04-07T20:22:47.571Z,13.34
2019-04-07T20:25:29.325Z,13.29
2019-04-07T20:27:59.565Z,13.25
2019-04-07T20:30:48.566Z,13.20
2019-04-07T20:33:20.914Z,13.17
2019-04-07T20:36:02.716Z,13.09
2019-04-07T20:38:33.688Z,13.03
2019-04-07T20:41:16.785Z,12.97
2019-04-07T20:43:47.237Z,12.93
2019-04-07T20:46:34.485Z,12.86
2019-04-07T20:49:10.637Z,12.83
2019-04-07T20:51:48.039Z,12.74
2019-04-07T20:54:15.326Z,12.65
2019-04-07T20:56:48.416Z,12.56
2019-04-07T20:59:26.846Z,12.54
2019-04-07T21:02:03.378Z,12.44
2019-04-07T21:04:37.500Z,12.40
2019-04-07T21:07:07.954Z,12.33
2019-04-07T21:09:48.042Z,12.27
2019-04-07T21:12:18.130Z,12.24
2019-04-07T21:14:48.197Z,12.19
2019-04-07T21:17:34.643Z,12.15
2019-04-07T21:20:14.555Z,12.11
2019-04-07T21:22:50.335Z,12.04
2019-04-07T21:25:23.754Z,11.96
2019-04-07T21:27:54.840Z,11.94
2019-04-07T21:30:37.337Z,11.89
2019-04-07T21:33:22.376Z,11.81
2019-04-07T21:36:10.288Z,11.74
2019-04-07T21:38:45.725Z,11.71
2019-04-07T21:41:27.498Z,11.61
2019-04-07T21:44:09.565Z,11.59
2019-04-07T21:46:42.924Z,11.54
2019-04-07T21:49:25.726Z,11.51
2019-04-07T21:52:05.124Z,11.44
2019-04-07T21:54:39.150Z,11.41
2019-04-07T21:57:25.554Z,11.39
2019-04-07T21:59:56.299Z,11.31
2019-04-07T22:02:29.265Z,11.24
2019-04-07T22:04:59.406Z,11.23
2019-04-07T22:07:33.550Z,11.17
2019-04-07T22:10:07.455Z,11.18
2019-04-07T22:12:35.986Z,11.10
2019-04-07T22:15:11.724Z,11.05
2019-04-07T22:17:39.252Z,11.01
2019-04-07T22:20:09.135Z,10.97
2019-04-07T22:22:37.568Z,10.95
2019-04-07T22:25:09.419Z,10.91
2019-04-07T22:27:37.522Z,10.88
2019-04-07T22:30:12.085Z,10.84
2019-04-07T22:32:40.771Z,10.83
2019-04-07T22:35:10.666Z,10.76
2019-04-07T22:37:39.912Z,10.72
2019-04-07T22:40:14.521Z,10.68
2019-04-07T22:42:45.426Z,10.66
2019-04-07T22:45:13.690Z,10.61
2019-04-07T22:47:42.058Z,10.58
2019-04-07T22:50:12.879Z,10.50
2019-04-07T22:52:41.842Z,10.46
2019-04-07T22:55:10.539Z,10.43
2019-04-07T22:57:39.000Z,10.37
2019-04-07T23:00:12.965Z,10.31
2019-04-07T23:02:42.317Z,10.28
2019-04-07T23:05:11.435Z,10.23
2019-04-07T23:07:39.989Z,10.20
2019-04-07T23:10:09.474Z,10.14
2019-04-07T23:12:38.227Z,10.11
2019-04-07T23:15:07.748Z,10.06
2019-04-07T23:17:36.435Z,10.03
2019-04-07T23:20:08.118Z,9.96
2019-04-07T23:22:36.648Z,9.94
2019-04-07T23:25:06.352Z,9.88
2019-04-07T23:27:35.961Z,9.83
2019-04-07T23:30:07.643Z,9.82
2019-04-07T23:32:36.091Z,9.78
2019-04-07T23:35:06.272Z,9.76
2019-04-07T23:37:34.953Z,9.72
2019-04-07T23:40:08.635Z,9.71
2019-04-07T23:42:38.183Z,9.68
2019-04-07T23:45:08.206Z,9.63
2019-04-07T23:47:36.770Z,9.59
2019-04-07T23:50:09.156Z,9.57
2019-04-07T23:52:37.643Z,9.53
2019-04-07T23:55:06.482Z,9.50
2019-04-07T23:57:35.982Z,9.47
